sensor_id;sensor_type;location;lat;lon;timestamp;P1;durP1;ratioP1;P2;durP2;ratioP2
562;SDS011;266;49.514;8.294;2023-11-18T00:00:53;4.93;;;4.30;;
562;SDS011;266;49.514;8.294;2023-11-18T00:03:22;5.33;;;4.80;;
562;SDS011;266;49.514;8.294;2023-11-18T00:05:51;5.83;;;5.23;;
562;SDS011;266;49.514;8.294;2023-11-18T00:08:18;5.73;;;5.13;;
562;SDS011;266;49.514;8.294;2023-11-18T00:10:46;7.93;;;6.17;;
562;SDS011;266;49.514;8.294;2023-11-18T00:13:14;7.33;;;6.03;;
562;SDS011;266;49.514;8.294;2023-11-18T00:15:42;6.23;;;5.10;;
562;SDS011;266;49.514;8.294;2023-11-18T00:18:12;4.57;;;4.17;;
562;SDS011;266;49.514;8.294;2023-11-18T00:20:41;6.00;;;5.40;;
562;SDS011;266;49.514;8.294;2023-11-18T00:23:10;5.97;;;5.37;;
562;SDS011;266;49.514;8.294;2023-11-18T00:25:38;5.97;;;5.50;;
562;SDS011;266;49.514;8.294;2023-11-18T00:28:06;5.33;;;4.90;;
562;SDS011;266;49.514;8.294;2023-11-18T00:30:34;7.90;;;5.30;;
562;SDS011;266;49.514;8.294;2023-11-18T00:33:04;5.33;;;4.80;;
562;SDS011;266;49.514;8.294;2023-11-18T00:35:32;5.37;;;4.97;;
562;SDS011;266;49.514;8.294;2023-11-18T00:38:02;6.03;;;5.43;;
562;SDS011;266;49.514;8.294;2023-11-18T00:40:30;5.00;;;4.50;;
562;SDS011;266;49.514;8.294;2023-11-18T00:42:58;7.00;;;4.57;;
562;SDS011;266;49.514;8.294;2023-11-18T00:45:26;5.70;;;5.10;;
562;SDS011;266;49.514;8.294;2023-11-18T00:47:55;4.87;;;4.47;;
562;SDS011;266;49.514;8.294;2023-11-18T00:50:23;5.33;;;4.90;;
562;SDS011;266;49.514;8.294;2023-11-18T00:52:50;5.40;;;4.87;;
562;SDS011;266;49.514;8.294;2023-11-18T00:55:20;5.10;;;4.60;;
562;SDS011;266;49.514;8.294;2023-11-18T00:57:48;5.70;;;5.13;;
562;SDS011;266;49.514;8.294;2023-11-18T01:00:16;4.00;;;3.70;;
562;SDS011;266;49.514;8.294;2023-11-18T01:02:48;4.43;;;4.03;;
562;SDS011;266;49.514;8.294;2023-11-18T01:05:17;5.30;;;4.00;;
562;SDS011;266;49.514;8.294;2023-11-18T01:07:45;5.63;;;4.20;;
562;SDS011;266;49.514;8.294;2023-11-18T01:10:13;5.37;;;4.87;;
562;SDS011;266;49.514;8.294;2023-11-18T01:12:43;5.00;;;4.50;;
562;SDS011;266;49.514;8.294;2023-11-18T01:15:11;5.63;;;5.10;;
562;SDS011;266;49.514;8.294;2023-11-18T01:17:40;5.10;;;4.60;;
562;SDS011;266;49.514;8.294;2023-11-18T01:20:09;5.00;;;4.50;;
562;SDS011;266;49.514;8.294;2023-11-18T01:22:39;6.10;;;4.97;;
562;SDS011;266;49.514;8.294;2023-11-18T01:25:09;5.10;;;4.70;;
562;SDS011;266;49.514;8.294;2023-11-18T01:27:39;4.97;;;4.20;;
562;SDS011;266;49.514;8.294;2023-11-18T01:30:09;4.33;;;3.93;;
562;SDS011;266;49.514;8.294;2023-11-18T01:32:37;4.73;;;4.33;;
562;SDS011;266;49.514;8.294;2023-11-18T01:35:07;4.20;;;3.80;;
562;SDS011;266;49.514;8.294;2023-11-18T01:37:37;6.87;;;4.67;;
562;SDS011;266;49.514;8.294;2023-11-18T01:40:05;4.70;;;4.30;;
562;SDS011;266;49.514;8.294;2023-11-18T01:42:34;4.40;;;4.00;;
562;SDS011;266;49.514;8.294;2023-11-18T01:45:04;3.70;;;3.40;;
562;SDS011;266;49.514;8.294;2023-11-18T01:47:39;4.97;;;4.00;;
562;SDS011;266;49.514;8.294;2023-11-18T01:50:08;5.53;;;5.03;;
562;SDS011;266;49.514;8.294;2023-11-18T01:52:39;7.97;;;4.37;;
562;SDS011;266;49.514;8.294;2023-11-18T01:55:11;4.93;;;4.40;;
562;SDS011;266;49.514;8.294;2023-11-18T01:57:40;5.30;;;4.80;;
562;SDS011;266;49.514;8.294;2023-11-18T02:00:11;5.23;;;4.70;;
562;SDS011;266;49.514;8.294;2023-11-18T02:02:41;8.47;;;4.73;;
562;SDS011;266;49.514;8.294;2023-11-18T02:05:10;5.80;;;3.90;;
562;SDS011;266;49.514;8.294;2023-11-18T02:07:39;5.43;;;4.87;;
562;SDS011;266;49.514;8.294;2023-11-18T02:10:07;5.70;;;4.87;;
562;SDS011;266;49.514;8.294;2023-11-18T02:12:38;6.60;;;5.07;;
562;SDS011;266;49.514;8.294;2023-11-18T02:15:13;6.20;;;4.90;;
562;SDS011;266;49.514;8.294;2023-11-18T02:17:45;5.83;;;4.67;;
562;SDS011;266;49.514;8.294;2023-11-18T02:20:15;13.73;;;5.00;;
562;SDS011;266;49.514;8.294;2023-11-18T02:22:47;8.30;;;4.73;;
562;SDS011;266;49.514;8.294;2023-11-18T02:25:15;5.57;;;4.80;;
562;SDS011;266;49.514;8.294;2023-11-18T02:27:46;4.93;;;4.43;;
562;SDS011;266;49.514;8.294;2023-11-18T02:30:14;6.77;;;6.13;;
562;SDS011;266;49.514;8.294;2023-11-18T02:32:45;5.93;;;5.30;;
562;SDS011;266;49.514;8.294;2023-11-18T02:35:18;4.63;;;4.23;;
562;SDS011;266;49.514;8.294;2023-11-18T02:37:51;5.60;;;4.60;;
562;SDS011;266;49.514;8.294;2023-11-18T02:40:26;4.00;;;3.70;;
562;SDS011;266;49.514;8.294;2023-11-18T02:42:59;5.47;;;4.97;;
562;SDS011;266;49.514;8.294;2023-11-18T02:45:31;5.60;;;5.03;;
562;SDS011;266;49.514;8.294;2023-11-18T02:48:01;6.57;;;4.77;;
562;SDS011;266;49.514;8.294;2023-11-18T02:50:29;5.20;;;4.70;;
562;SDS011;266;49.514;8.294;2023-11-18T02:52:58;5.30;;;4.30;;
562;SDS011;266;49.514;8.294;2023-11-18T02:55:26;4.80;;;4.40;;
562;SDS011;266;49.514;8.294;2023-11-18T02:57:54;4.33;;;3.90;;
562;SDS011;266;49.514;8.294;2023-11-18T03:00:24;5.50;;;4.97;;
562;SDS011;266;49.514;8.294;2023-11-18T03:02:52;4.80;;;4.40;;
562;SDS011;266;49.514;8.294;2023-11-18T03:05:21;5.50;;;5.00;;
562;SDS011;266;49.514;8.294;2023-11-18T03:07:49;5.13;;;4.20;;
562;SDS011;266;49.514;8.294;2023-11-18T03:10:19;5.63;;;5.17;;
562;SDS011;266;49.514;8.294;2023-11-18T03:12:48;4.97;;;4.40;;
562;SDS011;266;49.514;8.294;2023-11-18T03:15:17;4.87;;;4.47;;
562;SDS011;266;49.514;8.294;2023-11-18T03:17:46;6.03;;;4.53;;
562;SDS011;266;49.514;8.294;2023-11-18T03:20:16;5.00;;;4.50;;
562;SDS011;266;49.514;8.294;2023-11-18T03:22:44;6.20;;;5.33;;
562;SDS011;266;49.514;8.294;2023-11-18T03:25:12;5.27;;;4.77;;
562;SDS011;266;49.514;8.294;2023-11-18T03:27:40;5.30;;;4.80;;
562;SDS011;266;49.514;8.294;2023-11-18T03:30:09;5.87;;;5.20;;
562;SDS011;266;49.514;8.294;2023-11-18T03:32:37;4.90;;;4.17;;
562;SDS011;266;49.514;8.294;2023-11-18T03:35:08;6.00;;;4.97;;
562;SDS011;266;49.514;8.294;2023-11-18T03:37:37;6.87;;;4.97;;
562;SDS011;266;49.514;8.294;2023-11-18T03:40:08;5.63;;;5.10;;
562;SDS011;266;49.514;8.294;2023-11-18T03:42:37;8.50;;;6.60;;
562;SDS011;266;49.514;8.294;2023-11-18T03:45:06;7.43;;;5.73;;
562;SDS011;266;49.514;8.294;2023-11-18T03:47:35;6.33;;;4.90;;
562;SDS011;266;49.514;8.294;2023-11-18T03:50:04;5.73;;;5.23;;
562;SDS011;266;49.514;8.294;2023-11-18T03:52:36;4.37;;;3.97;;
562;SDS011;266;49.514;8.294;2023-11-18T03:55:05;4.83;;;4.33;;
562;SDS011;266;49.514;8.294;2023-11-18T03:57:34;6.07;;;4.90;;
562;SDS011;266;49.514;8.294;2023-11-18T04:00:03;5.63;;;5.00;;
562;SDS011;266;49.514;8.294;2023-11-18T04:02:32;4.47;;;4.07;;
562;SDS011;266;49.514;8.294;2023-11-18T04:05:02;5.30;;;4.73;;
562;SDS011;266;49.514;8.294;2023-11-18T04:07:31;6.53;;;4.90;;
562;SDS011;266;49.514;8.294;2023-11-18T04:10:01;14.40;;;6.20;;
562;SDS011;266;49.514;8.294;2023-11-18T04:12:32;5.73;;;4.93;;
562;SDS011;266;49.514;8.294;2023-11-18T04:15:00;5.50;;;4.47;;
562;SDS011;266;49.514;8.294;2023-11-18T04:17:28;4.70;;;4.30;;
562;SDS011;266;49.514;8.294;2023-11-18T04:19:56;5.17;;;4.67;;
562;SDS011;266;49.514;8.294;2023-11-18T04:22:24;5.90;;;4.70;;
562;SDS011;266;49.514;8.294;2023-11-18T04:24:52;6.30;;;4.90;;
562;SDS011;266;49.514;8.294;2023-11-18T04:27:21;5.03;;;4.53;;
562;SDS011;266;49.514;8.294;2023-11-18T04:29:49;7.13;;;6.10;;
562;SDS011;266;49.514;8.294;2023-11-18T04:32:17;7.53;;;5.30;;
562;SDS011;266;49.514;8.294;2023-11-18T04:34:45;9.30;;;6.27;;
562;SDS011;266;49.514;8.294;2023-11-18T04:37:15;6.43;;;5.80;;
562;SDS011;266;49.514;8.294;2023-11-18T04:39:43;7.77;;;7.03;;
562;SDS011;266;49.514;8.294;2023-11-18T04:42:12;11.30;;;9.13;;
562;SDS011;266;49.514;8.294;2023-11-18T04:44:43;7.57;;;6.77;;
562;SDS011;266;49.514;8.294;2023-11-18T04:47:11;7.93;;;6.83;;
562;SDS011;266;49.514;8.294;2023-11-18T04:49:42;9.70;;;7.27;;
562;SDS011;266;49.514;8.294;2023-11-18T04:52:10;7.00;;;6.03;;
562;SDS011;266;49.514;8.294;2023-11-18T04:54:38;7.50;;;6.53;;
562;SDS011;266;49.514;8.294;2023-11-18T04:57:06;7.90;;;5.90;;
562;SDS011;266;49.514;8.294;2023-11-18T04:59:35;8.00;;;7.13;;
562;SDS011;266;49.514;8.294;2023-11-18T05:02:04;7.10;;;5.80;;
562;SDS011;266;49.514;8.294;2023-11-18T05:04:33;6.37;;;5.50;;
562;SDS011;266;49.514;8.294;2023-11-18T05:07:02;5.83;;;5.33;;
562;SDS011;266;49.514;8.294;2023-11-18T05:09:32;5.90;;;5.20;;
562;SDS011;266;49.514;8.294;2023-11-18T05:12:01;7.83;;;6.37;;
562;SDS011;266;49.514;8.294;2023-11-18T05:14:29;6.10;;;5.50;;
562;SDS011;266;49.514;8.294;2023-11-18T05:16:58;7.83;;;7.23;;
562;SDS011;266;49.514;8.294;2023-11-18T05:19:29;6.93;;;6.07;;
562;SDS011;266;49.514;8.294;2023-11-18T05:21:57;6.70;;;6.10;;
562;SDS011;266;49.514;8.294;2023-11-18T05:24:26;7.97;;;6.83;;
562;SDS011;266;49.514;8.294;2023-11-18T05:26:54;6.83;;;5.63;;
562;SDS011;266;49.514;8.294;2023-11-18T05:29:22;6.13;;;5.47;;
562;SDS011;266;49.514;8.294;2023-11-18T05:31:50;6.23;;;5.20;;
562;SDS011;266;49.514;8.294;2023-11-18T05:34:18;6.67;;;5.43;;
562;SDS011;266;49.514;8.294;2023-11-18T05:36:48;4.97;;;4.47;;
562;SDS011;266;49.514;8.294;2023-11-18T05:39:20;6.00;;;5.50;;
562;SDS011;266;49.514;8.294;2023-11-18T05:41:50;5.60;;;5.10;;
562;SDS011;266;49.514;8.294;2023-11-18T05:44:19;5.30;;;4.80;;
562;SDS011;266;49.514;8.294;2023-11-18T05:46:55;6.00;;;5.13;;
562;SDS011;266;49.514;8.294;2023-11-18T05:49:23;6.90;;;4.50;;
562;SDS011;266;49.514;8.294;2023-11-18T05:51:53;6.60;;;5.97;;
562;SDS011;266;49.514;8.294;2023-11-18T05:54:21;5.37;;;4.90;;
562;SDS011;266;49.514;8.294;2023-11-18T05:56:49;6.80;;;5.03;;
562;SDS011;266;49.514;8.294;2023-11-18T05:59:17;8.90;;;5.30;;
562;SDS011;266;49.514;8.294;2023-11-18T06:01:45;6.00;;;4.43;;
562;SDS011;266;49.514;8.294;2023-11-18T06:04:13;4.80;;;4.40;;
562;SDS011;266;49.514;8.294;2023-11-18T06:06:42;8.60;;;5.07;;
562;SDS011;266;49.514;8.294;2023-11-18T06:09:11;6.37;;;5.20;;
562;SDS011;266;49.514;8.294;2023-11-18T06:11:46;6.80;;;5.77;;
562;SDS011;266;49.514;8.294;2023-11-18T06:14:15;5.10;;;4.70;;
562;SDS011;266;49.514;8.294;2023-11-18T06:16:44;5.97;;;5.30;;
562;SDS011;266;49.514;8.294;2023-11-18T06:19:13;5.67;;;5.13;;
562;SDS011;266;49.514;8.294;2023-11-18T06:21:42;6.60;;;5.80;;
562;SDS011;266;49.514;8.294;2023-11-18T06:24:11;5.70;;;5.10;;
562;SDS011;266;49.514;8.294;2023-11-18T06:26:40;6.23;;;5.60;;
562;SDS011;266;49.514;8.294;2023-11-18T06:29:08;7.27;;;6.57;;
562;SDS011;266;49.514;8.294;2023-11-18T06:31:39;10.33;;;6.90;;
562;SDS011;266;49.514;8.294;2023-11-18T06:34:07;8.27;;;6.40;;
562;SDS011;266;49.514;8.294;2023-11-18T06:36:35;8.87;;;6.67;;
562;SDS011;266;49.514;8.294;2023-11-18T06:39:03;11.20;;;6.80;;
562;SDS011;266;49.514;8.294;2023-11-18T06:41:35;6.60;;;5.97;;
562;SDS011;266;49.514;8.294;2023-11-18T06:44:05;8.57;;;6.80;;
562;SDS011;266;49.514;8.294;2023-11-18T06:46:39;7.90;;;7.07;;
562;SDS011;266;49.514;8.294;2023-11-18T06:49:07;7.60;;;6.13;;
562;SDS011;266;49.514;8.294;2023-11-18T06:51:37;6.93;;;6.23;;
562;SDS011;266;49.514;8.294;2023-11-18T06:54:05;9.67;;;7.70;;
562;SDS011;266;49.514;8.294;2023-11-18T06:56:39;8.57;;;6.60;;
562;SDS011;266;49.514;8.294;2023-11-18T06:59:09;8.80;;;5.27;;
562;SDS011;266;49.514;8.294;2023-11-18T07:01:40;6.40;;;5.80;;
562;SDS011;266;49.514;8.294;2023-11-18T07:04:09;8.70;;;7.40;;
562;SDS011;266;49.514;8.294;2023-11-18T07:06:37;6.40;;;5.80;;
562;SDS011;266;49.514;8.294;2023-11-18T07:09:06;8.03;;;6.60;;
562;SDS011;266;49.514;8.294;2023-11-18T07:11:40;6.50;;;5.80;;
562;SDS011;266;49.514;8.294;2023-11-18T07:14:08;6.20;;;5.60;;
562;SDS011;266;49.514;8.294;2023-11-18T07:16:37;7.43;;;6.60;;
562;SDS011;266;49.514;8.294;2023-11-18T07:19:06;7.73;;;6.27;;
562;SDS011;266;49.514;8.294;2023-11-18T07:21:36;8.90;;;6.60;;
562;SDS011;266;49.514;8.294;2023-11-18T07:24:05;6.43;;;5.83;;
562;SDS011;266;49.514;8.294;2023-11-18T07:26:34;7.47;;;6.80;;
562;SDS011;266;49.514;8.294;2023-11-18T07:29:03;8.10;;;5.93;;
562;SDS011;266;49.514;8.294;2023-11-18T07:31:34;6.20;;;5.07;;
562;SDS011;266;49.514;8.294;2023-11-18T07:34:03;8.40;;;6.60;;
562;SDS011;266;49.514;8.294;2023-11-18T07:36:32;10.53;;;5.83;;
562;SDS011;266;49.514;8.294;2023-11-18T07:39:00;6.03;;;5.43;;
562;SDS011;266;49.514;8.294;2023-11-18T07:41:30;7.23;;;6.53;;
562;SDS011;266;49.514;8.294;2023-11-18T07:43:59;7.43;;;5.53;;
562;SDS011;266;49.514;8.294;2023-11-18T07:46:29;6.37;;;5.43;;
562;SDS011;266;49.514;8.294;2023-11-18T07:48:58;16.50;;;6.97;;
562;SDS011;266;49.514;8.294;2023-11-18T07:51:28;6.23;;;5.63;;
562;SDS011;266;49.514;8.294;2023-11-18T07:53:55;6.30;;;5.63;;
562;SDS011;266;49.514;8.294;2023-11-18T07:56:24;7.33;;;5.50;;
562;SDS011;266;49.514;8.294;2023-11-18T07:58:53;7.57;;;6.70;;
562;SDS011;266;49.514;8.294;2023-11-18T08:01:21;6.03;;;5.17;;
562;SDS011;266;49.514;8.294;2023-11-18T08:03:50;9.23;;;7.20;;
562;SDS011;266;49.514;8.294;2023-11-18T08:06:19;9.47;;;6.67;;
562;SDS011;266;49.514;8.294;2023-11-18T08:08:48;8.40;;;6.60;;
562;SDS011;266;49.514;8.294;2023-11-18T08:11:16;9.40;;;7.53;;
562;SDS011;266;49.514;8.294;2023-11-18T08:13:44;9.30;;;6.17;;
562;SDS011;266;49.514;8.294;2023-11-18T08:16:13;7.77;;;6.97;;
562;SDS011;266;49.514;8.294;2023-11-18T08:18:42;9.30;;;6.87;;
562;SDS011;266;49.514;8.294;2023-11-18T08:21:12;7.80;;;6.40;;
562;SDS011;266;49.514;8.294;2023-11-18T08:23:40;9.67;;;6.43;;
562;SDS011;266;49.514;8.294;2023-11-18T08:26:11;8.00;;;6.93;;
562;SDS011;266;49.514;8.294;2023-11-18T08:28:39;7.30;;;5.63;;
562;SDS011;266;49.514;8.294;2023-11-18T08:31:08;8.63;;;7.07;;
562;SDS011;266;49.514;8.294;2023-11-18T08:33:36;9.80;;;6.47;;
562;SDS011;266;49.514;8.294;2023-11-18T08:36:05;8.10;;;6.40;;
562;SDS011;266;49.514;8.294;2023-11-18T08:38:35;8.10;;;7.33;;
562;SDS011;266;49.514;8.294;2023-11-18T08:41:03;7.40;;;6.13;;
562;SDS011;266;49.514;8.294;2023-11-18T08:43:35;8.90;;;6.20;;
562;SDS011;266;49.514;8.294;2023-11-18T08:46:03;8.73;;;5.60;;
562;SDS011;266;49.514;8.294;2023-11-18T08:48:33;7.00;;;6.30;;
562;SDS011;266;49.514;8.294;2023-11-18T08:51:02;7.80;;;7.00;;
562;SDS011;266;49.514;8.294;2023-11-18T08:53:35;9.80;;;7.40;;
562;SDS011;266;49.514;8.294;2023-11-18T08:56:07;6.97;;;6.20;;
562;SDS011;266;49.514;8.294;2023-11-18T08:58:41;7.70;;;5.60;;
562;SDS011;266;49.514;8.294;2023-11-18T09:01:11;10.87;;;6.43;;
562;SDS011;266;49.514;8.294;2023-11-18T09:03:42;7.00;;;6.07;;
562;SDS011;266;49.514;8.294;2023-11-18T09:06:15;10.50;;;6.50;;
562;SDS011;266;49.514;8.294;2023-11-18T09:08:47;8.80;;;6.90;;
562;SDS011;266;49.514;8.294;2023-11-18T09:11:20;7.10;;;6.50;;
562;SDS011;266;49.514;8.294;2023-11-18T09:13:50;7.27;;;5.50;;
562;SDS011;266;49.514;8.294;2023-11-18T09:16:20;9.40;;;7.53;;
562;SDS011;266;49.514;8.294;2023-11-18T09:18:49;8.17;;;6.60;;
562;SDS011;266;49.514;8.294;2023-11-18T09:21:17;7.87;;;6.10;;
562;SDS011;266;49.514;8.294;2023-11-18T09:23:53;6.90;;;6.13;;
562;SDS011;266;49.514;8.294;2023-11-18T09:26:22;6.93;;;5.83;;
562;SDS011;266;49.514;8.294;2023-11-18T09:28:52;8.40;;;7.47;;
562;SDS011;266;49.514;8.294;2023-11-18T09:31:21;10.80;;;6.90;;
562;SDS011;266;49.514;8.294;2023-11-18T09:33:49;10.13;;;6.10;;
562;SDS011;266;49.514;8.294;2023-11-18T09:36:20;8.23;;;6.00;;
562;SDS011;266;49.514;8.294;2023-11-18T09:38:49;7.30;;;6.50;;
562;SDS011;266;49.514;8.294;2023-11-18T09:41:22;6.03;;;5.43;;
562;SDS011;266;49.514;8.294;2023-11-18T09:43:54;9.67;;;6.80;;
562;SDS011;266;49.514;8.294;2023-11-18T09:46:23;8.40;;;6.10;;
562;SDS011;266;49.514;8.294;2023-11-18T09:48:58;9.43;;;6.90;;
562;SDS011;266;49.514;8.294;2023-11-18T09:51:41;8.10;;;6.97;;
562;SDS011;266;49.514;8.294;2023-11-18T09:54:15;7.47;;;6.33;;
562;SDS011;266;49.514;8.294;2023-11-18T09:56:51;8.27;;;6.33;;
562;SDS011;266;49.514;8.294;2023-11-18T09:59:25;7.13;;;6.40;;
562;SDS011;266;49.514;8.294;2023-11-18T10:02:02;7.50;;;5.90;;
562;SDS011;266;49.514;8.294;2023-11-18T10:04:31;6.87;;;6.10;;
562;SDS011;266;49.514;8.294;2023-11-18T10:07:00;6.83;;;6.10;;
562;SDS011;266;49.514;8.294;2023-11-18T10:09:29;6.83;;;6.13;;
562;SDS011;266;49.514;8.294;2023-11-18T10:12:05;6.30;;;5.67;;
562;SDS011;266;49.514;8.294;2023-11-18T10:14:35;9.93;;;5.97;;
562;SDS011;266;49.514;8.294;2023-11-18T10:17:06;6.83;;;5.30;;
562;SDS011;266;49.514;8.294;2023-11-18T10:19:49;9.67;;;4.80;;
562;SDS011;266;49.514;8.294;2023-11-18T10:22:20;6.30;;;5.67;;
562;SDS011;266;49.514;8.294;2023-11-18T10:24:50;7.53;;;5.50;;
562;SDS011;266;49.514;8.294;2023-11-18T10:27:23;5.90;;;5.30;;
562;SDS011;266;49.514;8.294;2023-11-18T10:29:54;6.90;;;5.03;;
562;SDS011;266;49.514;8.294;2023-11-18T10:32:23;6.87;;;5.30;;
562;SDS011;266;49.514;8.294;2023-11-18T10:34:55;6.20;;;5.37;;
562;SDS011;266;49.514;8.294;2023-11-18T10:37:24;5.93;;;5.30;;
562;SDS011;266;49.514;8.294;2023-11-18T10:39:57;6.03;;;5.23;;
562;SDS011;266;49.514;8.294;2023-11-18T10:42:27;6.20;;;5.03;;
562;SDS011;266;49.514;8.294;2023-11-18T10:44:57;5.60;;;4.70;;
562;SDS011;266;49.514;8.294;2023-11-18T10:47:28;5.03;;;4.50;;
562;SDS011;266;49.514;8.294;2023-11-18T10:49:59;5.77;;;5.23;;
562;SDS011;266;49.514;8.294;2023-11-18T10:52:27;5.70;;;5.10;;
562;SDS011;266;49.514;8.294;2023-11-18T10:54:57;5.20;;;4.73;;
562;SDS011;266;49.514;8.294;2023-11-18T10:57:34;5.20;;;4.57;;
562;SDS011;266;49.514;8.294;2023-11-18T11:00:03;5.13;;;4.70;;
562;SDS011;266;49.514;8.294;2023-11-18T11:02:39;8.27;;;5.10;;
562;SDS011;266;49.514;8.294;2023-11-18T11:05:08;5.57;;;5.03;;
562;SDS011;266;49.514;8.294;2023-11-18T11:07:47;5.77;;;5.17;;
562;SDS011;266;49.514;8.294;2023-11-18T11:10:17;6.90;;;6.30;;
562;SDS011;266;49.514;8.294;2023-11-18T11:12:53;8.90;;;5.30;;
562;SDS011;266;49.514;8.294;2023-11-18T11:15:26;5.23;;;4.73;;
562;SDS011;266;49.514;8.294;2023-11-18T11:18:14;4.80;;;4.37;;
562;SDS011;266;49.514;8.294;2023-11-18T11:20:53;5.43;;;4.43;;
562;SDS011;266;49.514;8.294;2023-11-18T11:23:30;5.87;;;5.27;;
562;SDS011;266;49.514;8.294;2023-11-18T11:26:13;5.40;;;4.77;;
562;SDS011;266;49.514;8.294;2023-11-18T11:28:58;7.50;;;5.97;;
562;SDS011;266;49.514;8.294;2023-11-18T11:31:32;5.63;;;5.13;;
562;SDS011;266;49.514;8.294;2023-11-18T11:34:05;4.80;;;3.90;;
562;SDS011;266;49.514;8.294;2023-11-18T11:36:37;4.83;;;4.43;;
562;SDS011;266;49.514;8.294;2023-11-18T11:39:09;6.10;;;4.43;;
562;SDS011;266;49.514;8.294;2023-11-18T11:41:46;4.97;;;4.47;;
562;SDS011;266;49.514;8.294;2023-11-18T11:44:22;5.60;;;4.93;;
562;SDS011;266;49.514;8.294;2023-11-18T11:46:56;4.77;;;4.27;;
562;SDS011;266;49.514;8.294;2023-11-18T11:49:27;5.37;;;4.87;;
562;SDS011;266;49.514;8.294;2023-11-18T11:52:04;6.47;;;5.00;;
562;SDS011;266;49.514;8.294;2023-11-18T11:54:43;5.17;;;4.43;;
562;SDS011;266;49.514;8.294;2023-11-18T11:57:16;6.27;;;4.10;;
562;SDS011;266;49.514;8.294;2023-11-18T11:59:57;5.87;;;4.77;;
562;SDS011;266;49.514;8.294;2023-11-18T12:02:37;5.47;;;4.00;;
562;SDS011;266;49.514;8.294;2023-11-18T12:05:07;4.53;;;4.13;;
562;SDS011;266;49.514;8.294;2023-11-18T12:07:42;4.67;;;4.17;;
562;SDS011;266;49.514;8.294;2023-11-18T12:10:12;6.70;;;5.10;;
562;SDS011;266;49.514;8.294;2023-11-18T12:12:47;4.17;;;3.77;;
562;SDS011;266;49.514;8.294;2023-11-18T12:15:17;4.60;;;3.80;;
562;SDS011;266;49.514;8.294;2023-11-18T12:18:21;4.60;;;3.83;;
562;SDS011;266;49.514;8.294;2023-11-18T12:20:50;5.50;;;4.10;;
562;SDS011;266;49.514;8.294;2023-11-18T12:23:22;4.60;;;4.20;;
562;SDS011;266;49.514;8.294;2023-11-18T12:25:51;4.20;;;3.80;;
562;SDS011;266;49.514;8.294;2023-11-18T12:28:24;5.10;;;4.60;;
562;SDS011;266;49.514;8.294;2023-11-18T12:30:55;4.30;;;3.90;;
562;SDS011;266;49.514;8.294;2023-11-18T12:36:39;4.60;;;3.93;;
562;SDS011;266;49.514;8.294;2023-11-18T12:40:02;4.83;;;3.90;;
562;SDS011;266;49.514;8.294;2023-11-18T12:43:03;6.10;;;4.73;;
562;SDS011;266;49.514;8.294;2023-11-18T12:48:54;5.07;;;4.30;;
562;SDS011;266;49.514;8.294;2023-11-18T12:51:26;6.50;;;3.80;;
562;SDS011;266;49.514;8.294;2023-11-18T12:53:54;6.00;;;4.73;;
562;SDS011;266;49.514;8.294;2023-11-18T12:56:22;6.50;;;4.17;;
562;SDS011;266;49.514;8.294;2023-11-18T12:58:53;7.20;;;3.87;;
562;SDS011;266;49.514;8.294;2023-11-18T13:01:23;5.50;;;4.23;;
562;SDS011;266;49.514;8.294;2023-11-18T13:03:53;4.40;;;4.00;;
562;SDS011;266;49.514;8.294;2023-11-18T13:06:22;3.63;;;3.30;;
562;SDS011;266;49.514;8.294;2023-11-18T13:08:55;5.20;;;4.43;;
562;SDS011;266;49.514;8.294;2023-11-18T13:11:24;4.73;;;3.87;;
562;SDS011;266;49.514;8.294;2023-11-18T13:13:53;4.80;;;4.30;;
562;SDS011;266;49.514;8.294;2023-11-18T13:16:24;5.13;;;3.70;;
562;SDS011;266;49.514;8.294;2023-11-18T13:18:52;3.87;;;3.13;;
562;SDS011;266;49.514;8.294;2023-11-18T13:21:22;3.60;;;3.20;;
562;SDS011;266;49.514;8.294;2023-11-18T13:23:51;4.10;;;3.13;;
562;SDS011;266;49.514;8.294;2023-11-18T13:26:20;4.27;;;3.90;;
562;SDS011;266;49.514;8.294;2023-11-18T13:28:51;4.30;;;3.73;;
562;SDS011;266;49.514;8.294;2023-11-18T13:31:20;3.40;;;3.10;;
562;SDS011;266;49.514;8.294;2023-11-18T13:33:49;3.40;;;3.10;;
562;SDS011;266;49.514;8.294;2023-11-18T13:36:19;3.77;;;3.37;;
562;SDS011;266;49.514;8.294;2023-11-18T13:38:47;4.33;;;3.47;;
562;SDS011;266;49.514;8.294;2023-11-18T13:41:27;3.93;;;3.13;;
562;SDS011;266;49.514;8.294;2023-11-18T13:43:58;3.57;;;3.27;;
562;SDS011;266;49.514;8.294;2023-11-18T13:46:27;3.10;;;2.77;;
562;SDS011;266;49.514;8.294;2023-11-18T13:48:56;3.40;;;3.10;;
562;SDS011;266;49.514;8.294;2023-11-18T13:51:25;3.43;;;3.13;;
562;SDS011;266;49.514;8.294;2023-11-18T13:53:53;4.80;;;3.33;;
562;SDS011;266;49.514;8.294;2023-11-18T13:56:22;3.03;;;2.70;;
562;SDS011;266;49.514;8.294;2023-11-18T13:58:53;4.23;;;3.57;;
562;SDS011;266;49.514;8.294;2023-11-18T14:01:22;4.30;;;3.90;;
562;SDS011;266;49.514;8.294;2023-11-18T14:03:50;3.63;;;3.10;;
562;SDS011;266;49.514;8.294;2023-11-18T14:06:21;3.57;;;3.27;;
562;SDS011;266;49.514;8.294;2023-11-18T14:08:49;5.70;;;3.13;;
562;SDS011;266;49.514;8.294;2023-11-18T14:11:18;3.40;;;3.10;;
562;SDS011;266;49.514;8.294;2023-11-18T14:13:46;4.23;;;3.47;;
562;SDS011;266;49.514;8.294;2023-11-18T14:16:14;3.87;;;3.57;;
562;SDS011;266;49.514;8.294;2023-11-18T14:18:43;3.83;;;3.53;;
562;SDS011;266;49.514;8.294;2023-11-18T14:21:11;3.37;;;3.03;;
562;SDS011;266;49.514;8.294;2023-11-18T14:23:41;3.20;;;2.83;;
562;SDS011;266;49.514;8.294;2023-11-18T14:26:09;4.30;;;3.70;;
562;SDS011;266;49.514;8.294;2023-11-18T14:28:37;5.50;;;4.10;;
562;SDS011;266;49.514;8.294;2023-11-18T14:31:06;3.77;;;3.47;;
562;SDS011;266;49.514;8.294;2023-11-18T14:33:36;3.80;;;3.50;;
562;SDS011;266;49.514;8.294;2023-11-18T14:36:05;4.40;;;3.50;;
562;SDS011;266;49.514;8.294;2023-11-18T14:38:35;2.83;;;2.63;;
562;SDS011;266;49.514;8.294;2023-11-18T14:41:06;3.40;;;2.83;;
562;SDS011;266;49.514;8.294;2023-11-18T14:43:34;3.90;;;3.57;;
562;SDS011;266;49.514;8.294;2023-11-18T14:46:02;5.33;;;3.20;;
562;SDS011;266;49.514;8.294;2023-11-18T14:48:31;2.93;;;2.70;;
562;SDS011;266;49.514;8.294;2023-11-18T14:50:59;2.83;;;2.60;;
562;SDS011;266;49.514;8.294;2023-11-18T14:53:27;3.20;;;2.90;;
562;SDS011;266;49.514;8.294;2023-11-18T14:55:55;4.37;;;3.60;;
562;SDS011;266;49.514;8.294;2023-11-18T14:58:25;3.70;;;3.37;;
562;SDS011;266;49.514;8.294;2023-11-18T15:00:53;3.60;;;3.23;;
562;SDS011;266;49.514;8.294;2023-11-18T15:03:23;3.10;;;2.43;;
562;SDS011;266;49.514;8.294;2023-11-18T15:05:51;2.87;;;2.67;;
562;SDS011;266;49.514;8.294;2023-11-18T15:08:19;2.53;;;2.33;;
562;SDS011;266;49.514;8.294;2023-11-18T15:10:47;2.20;;;2.10;;
562;SDS011;266;49.514;8.294;2023-11-18T15:13:15;2.37;;;2.17;;
562;SDS011;266;49.514;8.294;2023-11-18T15:15:45;2.80;;;2.23;;
562;SDS011;266;49.514;8.294;2023-11-18T15:18:14;6.33;;;2.83;;
562;SDS011;266;49.514;8.294;2023-11-18T15:20:45;2.70;;;2.27;;
562;SDS011;266;49.514;8.294;2023-11-18T15:23:14;4.87;;;2.53;;
562;SDS011;266;49.514;8.294;2023-11-18T15:25:44;1.87;;;1.77;;
562;SDS011;266;49.514;8.294;2023-11-18T15:28:12;2.77;;;2.57;;
562;SDS011;266;49.514;8.294;2023-11-18T15:30:40;2.50;;;2.13;;
562;SDS011;266;49.514;8.294;2023-11-18T15:33:12;3.43;;;3.13;;
562;SDS011;266;49.514;8.294;2023-11-18T15:35:41;5.30;;;2.63;;
562;SDS011;266;49.514;8.294;2023-11-18T15:38:09;4.73;;;4.07;;
562;SDS011;266;49.514;8.294;2023-11-18T15:40:44;3.67;;;3.37;;
562;SDS011;266;49.514;8.294;2023-11-18T15:43:13;3.00;;;2.80;;
562;SDS011;266;49.514;8.294;2023-11-18T15:45:42;3.20;;;2.90;;
562;SDS011;266;49.514;8.294;2023-11-18T15:48:12;5.30;;;3.10;;
562;SDS011;266;49.514;8.294;2023-11-18T15:50:41;3.80;;;3.20;;
562;SDS011;266;49.514;8.294;2023-11-18T15:53:09;3.40;;;3.10;;
562;SDS011;266;49.514;8.294;2023-11-18T15:55:41;3.57;;;3.33;;
562;SDS011;266;49.514;8.294;2023-11-18T15:58:13;4.23;;;3.67;;
562;SDS011;266;49.514;8.294;2023-11-18T16:00:42;4.53;;;4.13;;
562;SDS011;266;49.514;8.294;2023-11-18T16:03:11;4.10;;;3.53;;
562;SDS011;266;49.514;8.294;2023-11-18T16:05:40;3.77;;;3.47;;
562;SDS011;266;49.514;8.294;2023-11-18T16:08:07;3.83;;;3.27;;
562;SDS011;266;49.514;8.294;2023-11-18T16:10:36;3.43;;;3.13;;